createdAt,value
2018-08-17T00:00:39.209Z,92224.83
2018-08-17T00:03:15.412Z,92217.79
2018-08-17T00:05:51.159Z,92218.59
2018-08-17T00:08:27.164Z,92219.52
2018-08-17T00:11:02.921Z,92222.06
2018-08-17T00:13:38.692Z,92227.80
2018-08-17T00:16:14.481Z,92229.11
2018-08-17T00:18:50.797Z,92225.31
2018-08-17T00:21:26.586Z,92224.09
2018-08-17T00:24:02.540Z,92226.58
2018-08-17T00:26:38.381Z,92229.34
2018-08-17T00:29:14.235Z,92226.48
2018-08-17T00:31:49.960Z,92225.58
2018-08-17T00:34:25.917Z,92225.39
2018-08-17T00:37:01.521Z,92225.63
2018-08-17T00:39:37.482Z,92226.05
2018-08-17T00:42:13.445Z,92228.35
2018-08-17T00:44:49.325Z,92228.92
2018-08-17T00:47:25.134Z,92232.05
2018-08-17T00:50:00.990Z,92232.58
2018-08-17T00:52:36.785Z,92225.82
2018-08-17T00:55:12.669Z,92225.25
2018-08-17T00:57:48.412Z,92227.27
2018-08-17T01:00:24.695Z,92228.88
2018-08-17T01:03:00.492Z,92226.16
2018-08-17T01:05:36.410Z,92224.94
2018-08-17T01:08:12.189Z,92220.52
2018-08-17T01:10:48.194Z,92226.78
2018-08-17T01:13:25.191Z,92224.72
2018-08-17T01:16:00.988Z,92219.18
2018-08-17T01:18:36.747Z,92220.73
2018-08-17T01:21:12.689Z,92213.73
2018-08-17T01:23:48.503Z,92209.89
2018-08-17T01:26:25.763Z,92206.61
2018-08-17T01:29:01.623Z,92207.47
2018-08-17T01:31:37.404Z,92206.56
2018-08-17T01:34:13.116Z,92198.25
2018-08-17T01:36:48.814Z,92202.80
2018-08-17T01:39:24.557Z,92204.41
2018-08-17T01:42:00.429Z,92198.61
2018-08-17T01:44:36.243Z,92203.84
2018-08-17T01:47:12.116Z,92201.28
2018-08-17T01:49:48.142Z,92203.56
2018-08-17T01:52:23.880Z,92203.23
2018-08-17T01:54:59.699Z,92207.47
2018-08-17T01:57:35.635Z,92201.13
2018-08-17T02:00:12.366Z,92206.16
2018-08-17T02:02:48.094Z,92194.02
2018-08-17T02:05:24.218Z,92186.92
2018-08-17T02:08:00.014Z,92186.27
2018-08-17T02:10:35.869Z,92182.94
2018-08-17T02:13:11.601Z,92179.57
2018-08-17T02:15:47.358Z,92184.91
2018-08-17T02:18:23.115Z,92184.45
2018-08-17T02:20:59.001Z,92183.09
2018-08-17T02:23:34.876Z,92177.51
2018-08-17T02:26:10.588Z,92177.50
2018-08-17T02:28:46.496Z,92180.99
2018-08-17T02:31:22.512Z,92174.95
2018-08-17T02:33:58.446Z,92177.86
2018-08-17T02:36:34.218Z,92184.52
2018-08-17T02:39:10.141Z,92186.87
2018-08-17T02:41:45.755Z,92187.87
2018-08-17T02:44:21.647Z,92189.14
2018-08-17T02:46:57.381Z,92186.67
2018-08-17T02:49:33.270Z,92177.81
2018-08-17T02:52:09.059Z,92171.06
2018-08-17T02:54:44.828Z,92175.80
2018-08-17T02:57:20.590Z,92178.52
2018-08-17T02:59:56.326Z,92174.33
2018-08-17T03:02:32.050Z,92175.69
2018-08-17T03:05:07.883Z,92175.74
2018-08-17T03:07:43.565Z,92178.61
2018-08-17T03:10:19.507Z,92177.75
2018-08-17T03:12:55.289Z,92178.26
2018-08-17T03:15:31.174Z,92177.36
2018-08-17T03:18:06.823Z,92181.73
2018-08-17T03:20:42.786Z,92174.89
2018-08-17T03:23:18.557Z,92187.17
2018-08-17T03:25:54.417Z,92185.11
2018-08-17T03:28:30.324Z,92185.26
2018-08-17T03:31:06.806Z,92186.56
2018-08-17T03:33:42.738Z,92183.14
2018-08-17T03:36:20.246Z,92192.91
2018-08-17T03:38:56.109Z,92182.27
2018-08-17T03:41:32.009Z,92188.31
2018-08-17T03:44:07.950Z,92185.45
2018-08-17T03:46:43.767Z,92186.77
2018-08-17T03:49:19.525Z,92192.92
2018-08-17T03:51:55.409Z,92195.59
2018-08-17T03:54:31.180Z,92199.31
2018-08-17T03:57:06.974Z,92201.72
2018-08-17T03:59:42.702Z,92194.67
2018-08-17T04:02:19.038Z,92203.19
2018-08-17T04:04:54.888Z,92203.19
2018-08-17T04:07:30.594Z,92206.64
2018-08-17T04:10:06.391Z,92204.01
2018-08-17T04:12:42.262Z,92206.57
2018-08-17T04:15:18.007Z,92209.83
2018-08-17T04:17:53.876Z,92211.51
2018-08-17T04:20:29.744Z,92210.60
2018-08-17T04:23:05.744Z,92205.34
2018-08-17T04:25:41.919Z,92207.41
2018-08-17T04:28:17.681Z,92210.41
2018-08-17T04:30:53.423Z,92207.86
2018-08-17T04:33:29.200Z,92212.70
2018-08-17T04:36:05.119Z,92207.02
2018-08-17T04:38:40.955Z,92213.21
2018-08-17T04:41:16.816Z,92211.34
2018-08-17T04:43:52.631Z,92205.73
2018-08-17T04:46:28.365Z,92208.25
2018-08-17T04:49:05.303Z,92205.32
2018-08-17T04:51:41.206Z,92200.48
2018-08-17T04:54:16.996Z,92207.16
2018-08-17T04:56:52.614Z,92205.23
2018-08-17T04:59:28.525Z,92206.52
2018-08-17T05:02:04.315Z,92201.55
2018-08-17T05:04:40.101Z,92212.02
2018-08-17T05:07:15.869Z,92212.02
2018-08-17T05:09:51.745Z,92210.14
2018-08-17T05:12:27.576Z,92212.87
2018-08-17T05:15:03.540Z,92213.59
2018-08-17T05:17:39.317Z,92214.30
2018-08-17T05:20:14.944Z,92211.08
2018-08-17T05:22:51.860Z,92211.81
2018-08-17T05:25:28.183Z,92214.70
2018-08-17T05:28:03.924Z,92211.41
2018-08-17T05:30:39.688Z,92213.39
2018-08-17T05:33:15.316Z,92215.59
2018-08-17T05:35:51.119Z,92211.37
2018-08-17T05:38:27.256Z,92214.56
2018-08-17T05:41:03.027Z,92214.34
2018-08-17T05:43:38.678Z,92215.25
2018-08-17T05:46:14.540Z,92212.91
2018-08-17T05:48:50.372Z,92214.73
2018-08-17T05:51:26.648Z,92210.75
2018-08-17T05:54:02.524Z,92214.33
2018-08-17T05:56:38.166Z,92217.94
2018-08-17T05:59:14.094Z,92218.68
2018-08-17T06:01:49.961Z,92216.95
2018-08-17T06:04:25.561Z,92219.03
2018-08-17T06:07:01.795Z,92218.41
2018-08-17T06:09:37.549Z,92213.84
2018-08-17T06:12:13.432Z,92218.23
2018-08-17T06:14:49.254Z,92212.50
2018-08-17T06:17:25.131Z,92211.84
2018-08-17T06:20:01.016Z,92213.44
2018-08-17T06:22:37.023Z,92206.59
2018-08-17T06:25:18.662Z,92203.44
2018-08-17T06:27:54.633Z,92201.38
2018-08-17T06:30:30.521Z,92205.16
2018-08-17T06:33:11.637Z,92197.91
2018-08-17T06:35:47.540Z,92201.91
2018-08-17T06:38:23.401Z,92201.84
2018-08-17T06:40:59.300Z,92206.33
2018-08-17T06:43:30.161Z,92201.01
2018-08-17T06:46:00.952Z,92202.45
2018-08-17T06:48:31.770Z,92193.93
2018-08-17T06:51:02.645Z,92194.57
2018-08-17T06:53:33.662Z,92195.81
2018-08-17T06:56:04.529Z,92195.55
2018-08-17T06:58:35.442Z,92196.22
2018-08-17T07:01:06.228Z,92197.92
2018-08-17T07:03:38.002Z,92195.54
2018-08-17T07:06:09.241Z,92198.51
2018-08-17T07:08:40.116Z,92197.69
2018-08-17T07:11:11.084Z,92195.55
2018-08-17T07:13:41.918Z,92190.16
2018-08-17T07:16:12.692Z,92202.73
2018-08-17T07:18:43.489Z,92190.53
2018-08-17T07:21:14.272Z,92189.86
2018-08-17T07:23:45.100Z,92182.76
2018-08-17T07:26:15.878Z,92185.39
2018-08-17T07:28:46.721Z,92183.36
2018-08-17T07:31:17.509Z,92186.09
2018-08-17T07:33:48.394Z,92187.47
2018-08-17T07:36:19.185Z,92184.22
2018-08-17T07:38:49.991Z,92186.19
2018-08-17T07:41:20.795Z,92183.41
2018-08-17T07:43:51.652Z,92187.27
2018-08-17T07:46:22.424Z,92181.37
2018-08-17T07:48:53.250Z,92182.50
2018-08-17T07:51:24.046Z,92181.52
2018-08-17T07:53:54.859Z,92178.02
2018-08-17T07:56:25.632Z,92181.22
2018-08-17T07:58:56.603Z,92184.59
2018-08-17T08:01:27.538Z,92178.48
2018-08-17T08:03:58.335Z,92179.16
2018-08-17T08:06:29.106Z,92177.59
2018-08-17T08:08:59.906Z,92180.44
2018-08-17T08:11:30.705Z,92178.80
2018-08-17T08:14:01.630Z,92180.41
2018-08-17T08:16:32.431Z,92178.78
2018-08-17T08:19:08.198Z,92170.95
2018-08-17T08:21:39.361Z,92175.78
2018-08-17T08:24:10.170Z,92177.75
2018-08-17T08:26:40.957Z,92172.23
2018-08-17T08:29:11.938Z,92168.20
2018-08-17T08:33:07.014Z,92171.36
2018-08-17T08:35:37.885Z,92160.16
2018-08-17T08:38:08.694Z,92163.70
2018-08-17T08:40:39.543Z,92163.66
2018-08-17T08:43:10.316Z,92157.41
2018-08-17T08:45:41.350Z,92159.88
2018-08-17T08:48:12.321Z,92152.57
2018-08-17T08:50:43.130Z,92158.58
2018-08-17T08:53:13.921Z,92153.91
2018-08-17T08:55:44.804Z,92151.94
2018-08-17T08:58:15.583Z,92155.97
2018-08-17T09:00:46.461Z,92150.22
2018-08-17T09:03:17.236Z,92155.98
2018-08-17T09:05:48.051Z,92154.81
2018-08-17T09:08:18.947Z,92149.36
2018-08-17T09:10:49.969Z,92147.09
2018-08-17T09:13:20.732Z,92140.44
2018-08-17T09:15:51.568Z,92144.48
2018-08-17T09:18:22.360Z,92137.99
2018-08-17T09:20:53.190Z,92141.66
2018-08-17T09:23:23.963Z,92147.39
2018-08-17T09:25:54.763Z,92139.88
2018-08-17T09:28:25.795Z,92133.14
2018-08-17T09:30:56.673Z,92133.27
2018-08-17T09:33:27.439Z,92131.86
2018-08-17T09:35:58.369Z,92125.83
2018-08-17T09:38:29.350Z,92125.34
2018-08-17T09:41:00.168Z,92120.23
2018-08-17T09:43:30.939Z,92126.04
2018-08-17T09:46:02.213Z,92129.85
2018-08-17T09:48:32.989Z,92137.41
2018-08-17T09:51:03.918Z,92132.84
2018-08-17T09:53:34.682Z,92121.20
2018-08-17T09:56:05.589Z,92120.84
2018-08-17T09:58:36.367Z,92124.66
2018-08-17T10:01:12.382Z,92116.62
2018-08-17T10:03:43.644Z,92120.86
2018-08-17T10:06:19.788Z,92120.17
2018-08-17T10:08:55.936Z,92122.27
2018-08-17T10:11:26.918Z,92120.18
2018-08-17T10:13:58.084Z,92123.57
2018-08-17T10:16:28.946Z,92116.45
2018-08-17T10:18:59.755Z,92117.51
2018-08-17T10:21:34.603Z,92106.98
2018-08-17T10:24:05.270Z,92109.88
2018-08-17T10:26:36.081Z,92116.41
2018-08-17T10:29:06.858Z,92113.95
2018-08-17T10:31:37.686Z,92112.06
2018-08-17T10:34:08.536Z,92104.75
2018-08-17T10:36:39.606Z,92105.59
2018-08-17T10:39:10.979Z,92095.19
2018-08-17T10:41:42.563Z,92093.80
2018-08-17T10:44:13.530Z,92091.06
2018-08-17T10:46:44.371Z,92091.63
2018-08-17T10:49:15.208Z,92092.45
2018-08-17T10:51:46.215Z,92085.47
2018-08-17T10:54:16.973Z,92086.20
2018-08-17T10:56:47.779Z,92080.61
2018-08-17T10:59:18.539Z,92084.66
2018-08-17T11:01:49.437Z,92076.97
2018-08-17T11:04:20.199Z,92075.08
2018-08-17T11:06:51.997Z,92061.91
2018-08-17T11:09:22.757Z,92066.05
2018-08-17T11:11:53.574Z,92064.02
2018-08-17T11:14:24.348Z,92061.24
2018-08-17T11:16:55.401Z,92062.66
2018-08-17T11:19:26.194Z,92056.98
2018-08-17T11:21:56.996Z,92056.91
2018-08-17T11:24:27.754Z,92055.40
2018-08-17T11:26:58.560Z,92058.77
2018-08-17T11:29:29.334Z,92058.20
2018-08-17T11:32:00.218Z,92058.49
2018-08-17T11:34:31.108Z,92051.52
2018-08-17T11:37:02.680Z,92052.92
2018-08-17T11:39:33.422Z,92044.59
2018-08-17T11:42:04.626Z,92041.82
2018-08-17T11:44:35.378Z,92048.73
2018-08-17T11:47:06.269Z,92045.28
2018-08-17T11:49:37.046Z,92050.11
2018-08-17T11:52:07.938Z,92044.55
2018-08-17T11:54:38.688Z,92039.03
2018-08-17T11:57:09.511Z,92033.41
2018-08-17T11:59:44.789Z,92031.42
2018-08-17T12:02:15.643Z,92023.78
2018-08-17T12:04:47.246Z,92030.63
2018-08-17T12:07:18.069Z,92030.38
2018-08-17T12:09:54.694Z,92027.29
2018-08-17T12:12:25.513Z,92027.23
2018-08-17T12:14:56.288Z,92023.78
2018-08-17T12:17:27.130Z,92025.71
2018-08-17T12:19:57.918Z,92021.67
2018-08-17T12:22:29.206Z,92025.07
2018-08-17T12:25:00.300Z,92013.75
2018-08-17T12:27:31.852Z,92007.91
2018-08-17T12:30:02.869Z,92005.92
2018-08-17T12:32:33.666Z,92000.30
2018-08-17T12:35:04.504Z,92008.81
2018-08-17T12:37:35.313Z,92007.50
2018-08-17T12:40:06.124Z,92004.28
2018-08-17T12:42:37.925Z,91997.16
2018-08-17T12:45:13.849Z,91998.36
2018-08-17T12:47:44.652Z,91990.25
2018-08-17T12:50:15.421Z,91988.38
2018-08-17T12:52:46.213Z,91990.30
2018-08-17T12:55:16.961Z,91983.72
2018-08-17T12:57:47.752Z,91984.64
2018-08-17T13:00:18.513Z,91981.78
2018-08-17T13:02:53.250Z,91976.86
2018-08-17T13:05:24.035Z,91971.81
2018-08-17T13:07:54.871Z,91962.28
2018-08-17T13:10:25.637Z,91960.67
2018-08-17T13:13:01.537Z,91965.78
2018-08-17T13:15:32.281Z,91960.06
2018-08-17T13:18:16.697Z,91967.30
2018-08-17T13:20:47.482Z,91961.27
2018-08-17T13:23:18.335Z,91951.20
2018-08-17T13:25:49.126Z,91960.70
2018-08-17T13:28:19.952Z,91955.02
2018-08-17T13:30:50.720Z,91954.67
2018-08-17T13:33:21.546Z,91958.76
2018-08-17T13:35:52.646Z,91956.11
2018-08-17T13:38:23.499Z,91948.91
2018-08-17T13:40:54.277Z,91951.05
2018-08-17T13:43:25.105Z,91949.00
2018-08-17T13:45:55.874Z,91944.30
2018-08-17T13:48:26.770Z,91945.58
2018-08-17T13:50:57.820Z,91948.86
2018-08-17T13:53:28.638Z,91942.03
2018-08-17T13:55:59.453Z,91947.50
2018-08-17T13:58:30.278Z,91938.48
2018-08-17T14:01:01.060Z,91937.30
2018-08-17T14:03:33.352Z,91943.62
2018-08-17T14:06:04.818Z,91937.64
2018-08-17T14:08:35.634Z,91947.55
2018-08-17T14:11:06.922Z,91949.30
2018-08-17T14:13:37.727Z,91940.09
2018-08-17T14:16:08.495Z,91951.37
2018-08-17T14:18:39.570Z,91951.58
2018-08-17T14:21:10.357Z,91955.80
2018-08-17T14:23:41.277Z,91958.23
2018-08-17T14:26:12.164Z,91956.61
2018-08-17T14:28:43.036Z,91962.81
2018-08-17T14:31:13.851Z,91958.04
2018-08-17T14:33:44.704Z,91956.80
2018-08-17T14:36:15.469Z,91954.68
2018-08-17T14:38:46.411Z,91954.02
2018-08-17T14:41:17.200Z,91960.01
2018-08-17T14:43:48.026Z,91953.85
2018-08-17T14:46:18.826Z,91953.66
2018-08-17T14:48:49.905Z,91950.11
2018-08-17T14:51:20.658Z,91952.22
2018-08-17T14:53:51.546Z,91947.80
2018-08-17T14:56:22.371Z,91948.20
2018-08-17T14:58:53.162Z,91943.63
2018-08-17T15:01:23.910Z,91951.46
2018-08-17T15:03:54.752Z,91961.30
2018-08-17T15:06:25.513Z,91951.94
2018-08-17T15:08:56.381Z,91947.09
2018-08-17T15:11:27.596Z,91955.31
2018-08-17T15:13:58.439Z,91959.24
2018-08-17T15:16:29.204Z,91954.99
2018-08-17T15:19:00.129Z,91952.83
2018-08-17T15:21:30.992Z,91951.16
2018-08-17T15:24:06.144Z,91951.14
2018-08-17T15:26:37.060Z,91957.36
2018-08-17T15:29:08.107Z,91958.61
2018-08-17T15:31:38.884Z,91967.48
2018-08-17T15:34:09.803Z,91958.48
2018-08-17T15:36:40.594Z,91960.40
2018-08-17T15:39:11.784Z,91965.91
2018-08-17T15:41:44.925Z,91956.88
2018-08-17T15:44:20.837Z,91964.37
2018-08-17T15:46:52.737Z,91959.47
2018-08-17T15:49:27.654Z,91959.95
2018-08-17T15:51:58.667Z,91968.89
2018-08-17T15:54:29.815Z,91970.25
2018-08-17T15:57:00.731Z,91970.94
2018-08-17T15:59:32.179Z,91979.09
2018-08-17T16:02:02.933Z,91974.08
2018-08-17T16:04:34.853Z,91977.64
2018-08-17T16:07:05.974Z,91973.45
2018-08-17T16:09:36.766Z,91976.07
2018-08-17T16:12:07.630Z,91980.14
2018-08-17T16:14:38.452Z,91974.73
2018-08-17T16:17:09.247Z,91976.08
2018-08-17T16:19:40.263Z,91977.46
2018-08-17T16:22:11.445Z,91978.79
2018-08-17T16:24:47.563Z,91984.89
2018-08-17T16:27:18.532Z,91991.03
2018-08-17T16:29:49.321Z,91988.25
2018-08-17T16:32:20.123Z,91990.33
2018-08-17T16:34:51.855Z,91992.30
2018-08-17T16:37:22.709Z,91999.13
2018-08-17T16:39:54.263Z,91998.95
2018-08-17T16:42:30.910Z,91999.36
2018-08-17T16:45:01.771Z,91996.76
2018-08-17T16:47:32.537Z,92004.28
2018-08-17T16:50:03.638Z,92007.23
2018-08-17T16:52:34.426Z,92018.72
2018-08-17T16:55:05.526Z,92015.75
2018-08-17T16:57:36.302Z,92023.22
2018-08-17T17:00:09.125Z,92032.02
2018-08-17T17:02:40.359Z,92033.48
2018-08-17T17:05:11.303Z,92038.73
2018-08-17T17:07:42.101Z,92043.16
2018-08-17T17:10:13.263Z,92039.61
2018-08-17T17:12:44.049Z,92044.81
2018-08-17T17:15:20.952Z,92042.91
2018-08-17T17:18:10.767Z,92056.84
2018-08-17T17:20:41.778Z,92064.33
2018-08-17T17:23:12.882Z,92070.78
2018-08-17T17:25:43.687Z,92070.23
2018-08-17T17:28:14.872Z,92071.38
2018-08-17T17:30:50.767Z,92073.75
2018-08-17T17:33:22.150Z,92077.95
2018-08-17T17:35:53.148Z,92077.31
2018-08-17T17:38:24.380Z,92086.08
2018-08-17T17:40:55.236Z,92088.55
2018-08-17T17:43:26.016Z,92094.42
2018-08-17T17:45:56.887Z,92093.41
2018-08-17T17:48:28.069Z,92097.97
2018-08-17T17:50:58.981Z,92099.64
2018-08-17T17:53:29.780Z,92102.53
2018-08-17T17:56:00.610Z,92101.14
2018-08-17T17:58:31.393Z,92111.40
2018-08-17T18:01:09.113Z,92120.99
2018-08-17T18:03:44.379Z,92122.81
2018-08-17T18:06:15.237Z,92133.08
2018-08-17T18:08:46.027Z,92133.69
2018-08-17T18:11:16.838Z,92134.28
2018-08-17T18:13:48.120Z,92136.55
2018-08-17T18:16:18.948Z,92141.93
2018-08-17T18:18:50.161Z,92148.61
2018-08-17T18:21:22.166Z,92144.83
2018-08-17T18:23:58.497Z,92145.00
2018-08-17T18:26:29.345Z,92147.00
2018-08-17T18:29:00.158Z,92150.34
2018-08-17T18:31:31.096Z,92155.34
2018-08-17T18:34:01.909Z,92157.63
2018-08-17T18:36:32.821Z,92159.06
2018-08-17T18:39:04.009Z,92171.84
2018-08-17T18:41:34.861Z,92179.27
2018-08-17T18:44:05.682Z,92185.82
2018-08-17T18:46:36.946Z,92185.38
2018-08-17T18:49:07.946Z,92191.16
2018-08-17T18:51:38.865Z,92197.32
2018-08-17T18:54:09.655Z,92188.34
2018-08-17T18:56:40.489Z,92203.34
2018-08-17T18:59:11.353Z,92208.73
2018-08-17T19:01:42.427Z,92206.49
2018-08-17T19:04:13.276Z,92204.47
2018-08-17T19:06:44.157Z,92205.78
2018-08-17T19:09:14.929Z,92207.16
2018-08-17T19:11:45.746Z,92206.05
2018-08-17T19:14:16.551Z,92205.75
2018-08-17T19:16:47.357Z,92206.36
2018-08-17T19:19:18.216Z,92211.53
2018-08-17T19:21:49.185Z,92211.17
2018-08-17T19:24:19.993Z,92207.16
2018-08-17T19:26:50.836Z,92210.91
2018-08-17T19:29:21.608Z,92214.59
2018-08-17T19:31:57.685Z,92218.98
2018-08-17T19:34:29.620Z,92218.20
2018-08-17T19:37:00.461Z,92219.92
2018-08-17T19:39:33.690Z,92226.97
2018-08-17T19:42:04.644Z,92223.56
2018-08-17T19:44:35.430Z,92221.09
2018-08-17T19:47:06.499Z,92219.93
2018-08-17T19:49:37.325Z,92210.42
2018-08-17T19:52:09.062Z,92214.96
2018-08-17T19:54:39.854Z,92211.27
2018-08-17T19:57:10.704Z,92214.04
2018-08-17T19:59:46.625Z,92217.33
2018-08-17T20:02:22.636Z,92210.66
2018-08-17T20:05:01.192Z,92218.48
2018-08-17T20:07:38.228Z,92225.35
2018-08-17T20:10:15.125Z,92228.28
2018-08-17T20:12:50.931Z,92225.82
2018-08-17T20:15:26.684Z,92235.23
2018-08-17T20:18:02.683Z,92226.30
2018-08-17T20:20:38.411Z,92231.41
2018-08-17T20:23:26.811Z,92234.37
2018-08-17T20:26:02.655Z,92230.56
2018-08-17T20:28:38.526Z,92243.44
2018-08-17T20:31:14.395Z,92251.75
2018-08-17T20:33:50.114Z,92251.47
2018-08-17T20:36:27.035Z,92251.66
2018-08-17T20:39:08.490Z,92246.82
2018-08-17T20:41:44.347Z,92245.97
2018-08-17T20:44:20.238Z,92252.03
2018-08-17T20:46:56.002Z,92247.29
2018-08-17T20:49:35.917Z,92245.83
2018-08-17T20:52:12.058Z,92248.94
2018-08-17T20:54:47.845Z,92244.81
2018-08-17T20:57:23.716Z,92241.00
2018-08-17T21:00:00.676Z,92245.33
2018-08-17T21:02:36.800Z,92247.32
2018-08-17T21:05:12.678Z,92255.75
2018-08-17T21:07:49.891Z,92244.91
2018-08-17T21:10:25.852Z,92245.22
2018-08-17T21:13:01.683Z,92238.51
2018-08-17T21:15:37.574Z,92244.99
2018-08-17T21:18:15.588Z,92253.77
2018-08-17T21:20:52.225Z,92252.84
2018-08-17T21:23:28.616Z,92249.00
2018-08-17T21:26:04.891Z,92253.91
2018-08-17T21:28:40.788Z,92257.77
2018-08-17T21:31:17.710Z,92256.41
2018-08-17T21:33:58.127Z,92250.09
2018-08-17T21:36:34.143Z,92256.06
2018-08-17T21:39:14.644Z,92258.34
2018-08-17T21:41:51.178Z,92255.08
2018-08-17T21:44:27.085Z,92251.45
2018-08-17T21:47:03.857Z,92249.65
2018-08-17T21:49:39.643Z,92251.88
2018-08-17T21:52:20.467Z,92257.59
2018-08-17T21:54:56.231Z,92253.70
2018-08-17T21:57:32.135Z,92244.77
2018-08-17T22:00:16.567Z,92245.14
2018-08-17T22:02:52.984Z,92244.05
2018-08-17T22:05:30.244Z,92247.11
2018-08-17T22:08:06.177Z,92249.27
2018-08-17T22:10:41.964Z,92244.66
2018-08-17T22:13:31.882Z,92242.99
2018-08-17T22:16:07.734Z,92243.06
2018-08-17T22:18:43.843Z,92244.93
2018-08-17T22:21:19.697Z,92242.78
2018-08-17T22:23:56.004Z,92251.09
2018-08-17T22:26:32.399Z,92252.55
2018-08-17T22:29:08.429Z,92251.39
2018-08-17T22:31:44.417Z,92250.14
2018-08-17T22:34:20.220Z,92251.66
2018-08-17T22:36:55.981Z,92251.50
2018-08-17T22:39:39.277Z,92248.34
2018-08-17T22:42:18.366Z,92245.59
2018-08-17T22:44:54.625Z,92244.59
2018-08-17T22:47:30.360Z,92247.77
2018-08-17T22:50:06.739Z,92249.72
2018-08-17T22:52:42.629Z,92237.38
2018-08-17T22:55:18.416Z,92245.88
2018-08-17T22:57:54.256Z,92238.91
2018-08-17T23:00:31.444Z,92243.80
2018-08-17T23:03:09.339Z,92244.59
2018-08-17T23:05:46.150Z,92240.85
2018-08-17T23:08:21.774Z,92246.48
2018-08-17T23:10:57.550Z,92249.42
2018-08-17T23:13:33.460Z,92243.17
2018-08-17T23:16:09.442Z,92238.96
2018-08-17T23:18:45.186Z,92240.05
2018-08-17T23:21:21.487Z,92244.52
2018-08-17T23:23:57.298Z,92243.77
2018-08-17T23:26:33.400Z,92246.83
2018-08-17T23:29:09.048Z,92247.70
2018-08-17T23:31:44.860Z,92248.20
2018-08-17T23:34:20.659Z,92257.31
2018-08-17T23:36:58.440Z,92257.71
2018-08-17T23:39:34.339Z,92257.66
2018-08-17T23:42:10.194Z,92257.59
2018-08-17T23:44:46.004Z,92257.44
2018-08-17T23:47:24.265Z,92256.79
2018-08-17T23:50:04.574Z,92247.31
2018-08-17T23:52:40.348Z,92248.97
2018-08-17T23:55:17.972Z,92248.73
2018-08-17T23:57:53.781Z,92247.17
